Time;durP1;ratioP1;P1;durP2;ratioP2;P2;SDS_P1;SDS_P2;PMS_P1;PMS_P2;Temp;Humidity;BMP_temperature;BMP_pressure;BME280_temperature;BME280_humidity;BME280_pressure;Samples;Min_cycle;Max_cycle;Signal;HPM_P1;HPM_P2
2023/09/03 00:00:54;;;;;;;2.67;2.40;;;;;;;16.96;100.00;99821.28;5006782;28;20312;-80
2023/09/03 00:03:21;;;;;;;2.50;2.30;;;;;;;16.94;100.00;99818.81;5025583;28;20203;-79
2023/09/03 00:05:56;;;;;;;2.60;2.40;;;;;;;16.93;100.00;99814.50;5031382;28;20225;-79
2023/09/03 00:08:24;;;;;;;2.37;2.20;;;;;;;16.92;100.00;99826.41;5020375;28;20647;-81
2023/09/03 00:10:53;;;;;;;2.50;2.30;;;;;;;16.91;100.00;99826.66;5005339;28;20322;-80
2023/09/03 00:13:22;;;;;;;2.60;2.20;;;;;;;16.88;100.00;99819.88;5005493;28;20204;-79
2023/09/03 00:15:52;;;;;;;2.17;2.07;;;;;;;16.86;100.00;99816.59;4997363;28;20234;-79
2023/09/03 00:18:22;;;;;;;2.83;2.60;;;;;;;16.82;100.00;99828.19;5004038;28;20211;-80
2023/09/03 00:21:04;;;;;;;2.47;2.27;;;;;;;16.84;100.00;99829.59;4998614;28;20211;-79
2023/09/03 00:23:35;;;;;;;3.07;2.50;;;;;;;16.78;100.00;99819.78;5004455;28;20286;-79
2023/09/03 00:26:03;;;;;;;2.50;2.30;;;;;;;16.74;100.00;99824.06;5006682;28;20192;-80
2023/09/03 00:28:31;;;;;;;2.83;2.40;;;;;;;16.69;100.00;99815.88;5012161;28;20249;-80
2023/09/03 00:31:07;;;;;;;3.63;2.50;;;;;;;16.66;100.00;99819.09;5007865;28;20607;-79
2023/09/03 00:33:37;;;;;;;2.70;2.50;;;;;;;16.64;100.00;99819.38;4987277;28;20289;-80
2023/09/03 00:36:08;;;;;;;2.50;2.30;;;;;;;16.64;100.00;99818.53;5000503;28;20286;-79
2023/09/03 00:38:37;;;;;;;3.03;2.70;;;;;;;16.58;100.00;99830.38;4999932;28;20212;-79
2023/09/03 00:41:05;;;;;;;3.03;2.77;;;;;;;16.52;100.00;99834.03;5000795;28;20198;-79
2023/09/03 00:43:33;;;;;;;2.80;2.60;;;;;;;16.47;100.00;99834.81;5006986;28;20656;-80
2023/09/03 00:46:04;;;;;;;3.30;2.50;;;;;;;16.41;100.00;99849.34;5009784;28;20203;-80
2023/09/03 00:48:32;;;;;;;2.87;2.67;;;;;;;16.29;100.00;99864.88;5006358;28;20208;-80
2023/09/03 00:51:03;;;;;;;2.90;2.70;;;;;;;16.16;100.00;99871.47;5007116;28;20195;-79
2023/09/03 00:53:33;;;;;;;3.13;2.83;;;;;;;16.10;100.00;99871.63;5008224;28;20282;-79
2023/09/03 00:56:01;;;;;;;3.97;3.00;;;;;;;16.10;100.00;99871.63;5014813;28;20221;-80
2023/09/03 00:58:29;;;;;;;3.13;2.83;;;;;;;16.09;100.00;99894.34;5010228;28;20227;-79
2023/09/03 01:00:58;;;;;;;3.50;3.20;;;;;;;16.10;100.00;99904.91;5012854;28;20257;-79
2023/09/03 01:03:27;;;;;;;4.23;2.87;;;;;;;16.14;100.00;99886.31;5007980;28;20746;-79
2023/09/03 01:05:55;;;;;;;3.13;2.93;;;;;;;16.21;100.00;99885.06;4993355;28;20721;-79
2023/09/03 01:08:22;;;;;;;2.80;2.60;;;;;;;16.25;100.00;99886.19;5013418;28;20658;-81
2023/09/03 01:10:54;;;;;;;3.40;3.07;;;;;;;16.26;100.00;99882.41;5012936;28;20231;-80
2023/09/03 01:13:30;;;;;;;3.20;2.90;;;;;;;16.31;100.00;99876.25;5010067;28;20246;-81
2023/09/03 01:16:03;;;;;;;3.23;2.93;;;;;;;16.33;100.00;99876.81;5011554;28;20194;-79
2023/09/03 01:18:31;;;;;;;2.93;2.70;;;;;;;16.34;100.00;99872.22;4990393;28;20689;-79
2023/09/03 01:21:17;;;;;;;3.70;3.00;;;;;;;16.36;100.00;99867.41;5012792;28;20290;-80
2023/09/03 01:23:56;;;;;;;3.20;2.90;;;;;;;16.40;100.00;99873.94;5014152;28;20673;-80
2023/09/03 01:26:31;;;;;;;4.50;3.07;;;;;;;16.38;100.00;99863.34;5009056;28;20294;-79
2023/09/03 01:29:00;;;;;;;3.30;3.03;;;;;;;16.40;100.00;99866.66;5008473;28;20677;-78
2023/09/03 01:31:27;;;;;;;3.17;2.87;;;;;;;16.40;100.00;99872.06;5000906;28;20214;-79
2023/09/03 01:34:03;;;;;;;3.13;2.73;;;;;;;16.44;100.00;99866.94;5011823;28;20187;-79
2023/09/03 01:36:32;;;;;;;3.27;3.07;;;;;;;16.45;100.00;99864.00;5013009;28;20203;-79
2023/09/03 01:39:03;;;;;;;3.50;3.20;;;;;;;16.48;100.00;99858.09;5009877;28;20316;-80
2023/09/03 01:41:34;;;;;;;3.40;3.10;;;;;;;16.51;100.00;99862.19;5007413;28;20191;-79
2023/09/03 01:44:02;;;;;;;3.37;3.03;;;;;;;16.57;100.00;99859.25;5002522;28;20679;-79
2023/09/03 01:46:40;;;;;;;3.53;3.23;;;;;;;16.61;100.00;99863.13;5002311;28;20266;-79
2023/09/03 01:49:49;;;;;;;2.97;2.77;;;;;;;16.64;100.00;99861.81;5010892;28;20250;-81
2023/09/03 01:52:38;;;;;;;3.27;2.97;;;;;;;16.65;100.00;99864.28;4998603;28;20291;-79
2023/09/03 01:55:09;;;;;;;3.30;3.10;;;;;;;16.68;100.00;99861.06;5024933;28;20195;-80
2023/09/03 01:57:45;;;;;;;3.03;2.80;;;;;;;16.69;100.00;99862.69;5010928;28;20685;-79
2023/09/03 02:00:18;;;;;;;3.00;2.80;;;;;;;16.71;100.00;99865.94;4992242;28;20262;-79
2023/09/03 02:02:47;;;;;;;3.20;2.90;;;;;;;16.72;100.00;99869.47;5009267;28;20601;-81
2023/09/03 02:05:15;;;;;;;3.60;3.00;;;;;;;16.72;100.00;99867.59;5007507;28;20598;-78
2023/09/03 02:07:42;;;;;;;3.10;2.90;;;;;;;16.70;100.00;99872.44;5004493;28;20580;-79
2023/09/03 02:10:11;;;;;;;3.37;3.03;;;;;;;16.69;100.00;99878.13;4998141;28;20625;-82
2023/09/03 02:12:39;;;;;;;3.07;2.87;;;;;;;16.67;100.00;99891.06;4997686;28;20694;-80
2023/09/03 02:15:07;;;;;;;3.20;2.90;;;;;;;16.67;100.00;99877.53;5005609;28;20203;-79
2023/09/03 02:17:35;;;;;;;2.90;2.70;;;;;;;16.65;100.00;99880.50;4999469;28;20216;-80
2023/09/03 02:20:04;;;;;;;3.17;2.87;;;;;;;16.63;100.00;99879.13;5007212;28;20208;-79
2023/09/03 02:22:32;;;;;;;3.40;3.10;;;;;;;16.57;100.00;99874.69;5002375;28;20203;-80
2023/09/03 02:24:59;;;;;;;4.63;2.67;;;;;;;16.55;100.00;99880.34;5005238;28;20255;-79
2023/09/03 02:27:27;;;;;;;3.07;2.70;;;;;;;16.53;100.00;99882.47;5010745;28;20202;-80
2023/09/03 02:29:54;;;;;;;3.47;2.93;;;;;;;16.51;100.00;99883.81;5008945;28;20208;-80
2023/09/03 02:32:22;;;;;;;4.63;3.00;;;;;;;16.48;100.00;99887.00;5004025;28;20200;-81
2023/09/03 02:34:50;;;;;;;3.03;2.80;;;;;;;16.44;100.00;99888.59;5008057;28;20651;-79
2023/09/03 02:37:18;;;;;;;2.90;2.70;;;;;;;16.40;100.00;99892.88;5004999;28;20191;-80
2023/09/03 02:39:46;;;;;;;3.20;3.00;;;;;;;16.35;100.00;99900.91;4993136;28;20199;-79
2023/09/03 02:42:15;;;;;;;3.20;2.90;;;;;;;16.31;100.00;99903.31;4997020;28;20196;-79
2023/09/03 02:44:45;;;;;;;3.70;3.20;;;;;;;16.28;100.00;99901.91;4999112;28;20200;-79
2023/09/03 02:47:14;;;;;;;3.17;2.93;;;;;;;16.24;100.00;99902.66;4987802;28;20209;-80
2023/09/03 02:49:45;;;;;;;4.27;3.23;;;;;;;16.16;100.00;99901.19;4996160;28;20200;-79
2023/09/03 02:52:13;;;;;;;3.30;3.00;;;;;;;16.12;100.00;99901.94;5001344;28;20637;-80
2023/09/03 02:54:41;;;;;;;3.00;2.80;;;;;;;16.05;100.00;99912.94;5005001;28;20203;-78
2023/09/03 02:57:08;;;;;;;3.47;3.17;;;;;;;15.99;100.00;99911.25;5005451;28;20601;-78
2023/09/03 02:59:35;;;;;;;3.30;3.00;;;;;;;15.96;100.00;99906.31;5002177;28;20222;-81
2023/09/03 03:02:06;;;;;;;3.27;3.07;;;;;;;15.95;100.00;99923.63;5001487;28;20504;-80
2023/09/03 03:04:33;;;;;;;4.43;3.10;;;;;;;15.95;100.00;99920.09;5004012;28;20213;-80
2023/09/03 03:07:02;;;;;;;2.93;2.73;;;;;;;15.93;100.00;99917.63;5003625;28;20203;-78
2023/09/03 03:09:29;;;;;;;3.83;3.23;;;;;;;15.93;100.00;99916.81;5005751;28;20234;-81
2023/09/03 03:11:57;;;;;;;3.47;3.17;;;;;;;16.04;100.00;99924.00;5004215;28;20199;-81
2023/09/03 03:14:25;;;;;;;3.40;3.17;;;;;;;16.14;100.00;99934.97;5005971;28;20581;-81
2023/09/03 03:16:54;;;;;;;3.17;2.80;;;;;;;16.08;100.00;99938.66;4999968;28;20207;-78
2023/09/03 03:19:22;;;;;;;2.90;2.70;;;;;;;16.04;100.00;99924.00;5003509;28;20302;-80
2023/09/03 03:21:52;;;;;;;3.40;3.10;;;;;;;16.02;100.00;99936.94;5001966;28;20227;-83
2023/09/03 03:24:20;;;;;;;3.30;3.00;;;;;;;15.97;100.00;99928.75;4997695;28;20206;-81
2023/09/03 03:26:50;;;;;;;3.17;2.83;;;;;;;15.93;100.00;99930.31;4995278;28;20661;-80
2023/09/03 03:29:21;;;;;;;3.00;2.80;;;;;;;15.89;100.00;99935.41;5003153;28;20210;-81
2023/09/03 03:31:51;;;;;;;3.00;2.80;;;;;;;15.87;100.00;99934.81;5008700;28;20198;-83
2023/09/03 03:34:20;;;;;;;3.20;2.83;;;;;;;15.81;100.00;99925.84;5005942;28;20199;-81
2023/09/03 03:36:56;;;;;;;3.40;2.60;;;;;;;15.78;100.00;99929.00;5000594;28;20677;-81
2023/09/03 03:39:24;;;;;;;3.10;2.90;;;;;;;15.72;100.00;99940.00;5000413;28;20211;-81
2023/09/03 03:41:53;;;;;;;3.40;3.10;;;;;;;15.70;100.00;99945.63;5007011;28;20206;-80
2023/09/03 03:44:21;;;;;;;3.40;3.00;;;;;;;15.67;100.00;99943.44;5023114;28;20202;-82
2023/09/03 03:46:48;;;;;;;4.00;3.37;;;;;;;15.67;100.00;99948.00;5005449;28;20206;-79
2023/09/03 03:49:17;;;;;;;3.10;2.80;;;;;;;15.67;100.00;99953.41;4984279;28;20209;-79
2023/09/03 03:51:45;;;;;;;3.17;2.87;;;;;;;15.71;100.00;99951.84;5008061;28;20199;-80
2023/09/03 03:54:14;;;;;;;2.97;2.77;;;;;;;15.70;100.00;99950.22;5006696;28;20195;-79
2023/09/03 03:56:43;;;;;;;2.93;2.73;;;;;;;15.65;100.00;99948.25;4997684;28;20210;-79
2023/09/03 03:59:11;;;;;;;2.83;2.63;;;;;;;15.63;100.00;99947.66;4996388;28;20223;-79
2023/09/03 04:01:41;;;;;;;3.80;2.80;;;;;;;15.61;100.00;99949.81;4977803;28;20199;-79
2023/09/03 04:04:10;;;;;;;2.70;2.50;;;;;;;15.60;100.00;99950.88;4994975;28;20214;-79
2023/09/03 04:06:39;;;;;;;2.90;2.70;;;;;;;15.59;100.00;99948.41;5005551;28;20215;-78
2023/09/03 04:09:07;;;;;;;2.67;2.47;;;;;;;15.56;100.00;99948.91;5008562;28;20699;-79
2023/09/03 04:11:34;;;;;;;3.53;2.87;;;;;;;15.53;100.00;99954.78;5011241;28;20264;-79
2023/09/03 04:14:03;;;;;;;3.10;2.70;;;;;;;15.49;100.00;99948.22;5004323;28;20191;-79
2023/09/03 04:16:31;;;;;;;2.80;2.60;;;;;;;15.47;100.00;99956.56;5001051;28;20206;-79
2023/09/03 04:19:01;;;;;;;3.13;2.90;;;;;;;15.43;100.00;99958.09;4997764;28;20317;-79
2023/09/03 04:21:31;;;;;;;5.90;3.17;;;;;;;15.43;100.00;99966.19;5017223;28;20194;-79
2023/09/03 04:24:02;;;;;;;3.23;2.67;;;;;;;15.40;100.00;99970.19;4999986;28;20574;-80
2023/09/03 04:26:30;;;;;;;3.00;2.80;;;;;;;15.40;100.00;99974.75;5017756;28;20222;-79
2023/09/03 04:28:59;;;;;;;3.03;2.83;;;;;;;15.40;100.00;99977.47;5010723;28;20657;-79
2023/09/03 04:31:28;;;;;;;3.30;3.00;;;;;;;15.41;100.00;99982.63;5026584;28;20599;-79
2023/09/03 04:33:58;;;;;;;2.93;2.73;;;;;;;15.43;100.00;99982.41;5023779;28;20248;-79
2023/09/03 04:36:28;;;;;;;3.57;3.13;;;;;;;15.48;100.00;99982.50;5029854;28;20195;-79
2023/09/03 04:38:56;;;;;;;3.47;3.00;;;;;;;15.57;100.00;99982.94;5011265;28;20587;-79
2023/09/03 04:41:24;;;;;;;3.37;3.00;;;;;;;15.63;100.00;99974.66;5015658;28;20199;-79
2023/09/03 04:44:07;;;;;;;3.50;3.20;;;;;;;15.70;100.00;99975.34;5006149;28;20238;-79
2023/09/03 04:46:40;;;;;;;2.80;2.60;;;;;;;15.81;100.00;99982.56;5009964;28;20213;-79
2023/09/03 04:49:08;;;;;;;3.23;2.73;;;;;;;15.97;100.00;99986.31;4991494;28;20248;-79
2023/09/03 04:51:35;;;;;;;3.43;2.57;;;;;;;16.12;100.00;99991.97;4996821;28;20195;-79
2023/09/03 04:54:03;;;;;;;2.70;2.50;;;;;;;16.24;100.00;100005.38;5001989;28;20265;-80
2023/09/03 04:56:31;;;;;;;3.23;2.93;;;;;;;16.34;100.00;100000.13;5018037;28;20314;-79
2023/09/03 04:58:59;;;;;;;3.10;2.80;;;;;;;16.46;100.00;100003.56;5000142;28;20238;-79
2023/09/03 05:01:27;;;;;;;2.93;2.70;;;;;;;16.55;100.00;100007.47;4999846;28;20214;-81
2023/09/03 05:03:58;;;;;;;3.83;2.43;;;;;;;16.60;100.00;100025.69;5014444;28;20221;-79
2023/09/03 05:06:26;;;;;;;3.13;2.50;;;;;;;16.66;100.00;100011.16;5009028;28;20845;-81
2023/09/03 05:08:57;;;;;;;3.00;2.70;;;;;;;16.77;100.00;100004.00;5007198;28;20202;-82
2023/09/03 05:11:27;;;;;;;3.87;2.80;;;;;;;16.89;100.00;99991.19;4999574;28;20328;-82
2023/09/03 05:13:57;;;;;;;2.90;2.70;;;;;;;16.98;100.00;99978.84;5007308;28;20209;-79
2023/09/03 05:16:26;;;;;;;2.80;2.60;;;;;;;17.05;100.00;99972.16;5020253;28;20237;-79
2023/09/03 05:18:54;;;;;;;3.00;2.80;;;;;;;17.11;100.00;99981.16;5005287;28;20220;-79
2023/09/03 05:21:22;;;;;;;2.73;2.50;;;;;;;17.18;100.00;99996.13;4985885;28;20669;-80
2023/09/03 05:23:51;;;;;;;2.80;2.60;;;;;;;17.27;100.00;99999.19;5006999;28;20199;-81
2023/09/03 05:26:19;;;;;;;3.00;2.77;;;;;;;17.36;100.00;99994.13;5007303;28;20639;-80
2023/09/03 05:28:47;;;;;;;2.80;2.60;;;;;;;17.44;100.00;99985.56;5003473;28;20294;-80
2023/09/03 05:31:16;;;;;;;3.20;2.90;;;;;;;17.50;100.00;99979.09;5007362;28;20193;-80
2023/09/03 05:33:43;;;;;;;2.93;2.50;;;;;;;17.58;100.00;99967.84;5030931;28;20198;-80
2023/09/03 05:36:14;;;;;;;3.07;2.60;;;;;;;17.65;100.00;99976.59;5013797;28;20260;-80
2023/09/03 05:38:42;;;;;;;2.77;2.57;;;;;;;17.71;100.00;99991.00;5027147;28;20214;-80
2023/09/03 05:41:12;;;;;;;2.80;2.60;;;;;;;17.71;100.00;99999.94;5015977;28;20202;-79
2023/09/03 05:43:40;;;;;;;3.07;2.87;;;;;;;17.72;100.00;100008.91;5033399;28;20203;-80
2023/09/03 05:46:08;;;;;;;2.83;2.63;;;;;;;17.77;100.00;100009.78;5030987;28;20288;-82
2023/09/03 05:48:37;;;;;;;2.93;2.53;;;;;;;17.91;100.00;100002.03;5009405;28;20212;-80
2023/09/03 05:51:09;;;;;;;2.60;2.40;;;;;;;18.04;100.00;100015.97;4997737;28;20230;-80
2023/09/03 05:53:40;;;;;;;2.60;2.40;;;;;;;18.11;100.00;100012.19;5009446;28;20648;-81
2023/09/03 05:56:10;;;;;;;3.13;2.90;;;;;;;18.06;100.00;100012.97;5015560;28;20293;-79
2023/09/03 05:58:42;;;;;;;3.00;2.80;;;;;;;18.13;100.00;100015.47;5006696;28;20302;-79
2023/09/03 06:01:12;;;;;;;3.00;2.80;;;;;;;18.21;100.00;100009.56;5011871;28;20255;-80
2023/09/03 06:03:41;;;;;;;4.23;2.77;;;;;;;18.38;100.00;100010.25;5007686;28;20207;-80
2023/09/03 06:06:11;;;;;;;3.33;2.70;;;;;;;18.52;100.00;100016.03;5009985;28;20673;-79
2023/09/03 06:08:41;;;;;;;4.17;2.77;;;;;;;18.61;100.00;100015.31;5011529;28;20939;-79
2023/09/03 06:11:09;;;;;;;2.67;2.47;;;;;;;18.71;100.00;100006.41;5014435;28;20244;-79
2023/09/03 06:13:38;;;;;;;2.90;2.70;;;;;;;18.84;100.00;100016.78;5018108;28;20204;-80
2023/09/03 06:16:06;;;;;;;2.80;2.60;;;;;;;18.99;100.00;100016.81;5015224;28;20201;-80
2023/09/03 06:18:34;;;;;;;3.07;2.70;;;;;;;19.13;100.00;100014.47;5023566;28;20725;-80
2023/09/03 06:21:02;;;;;;;3.83;2.60;;;;;;;19.22;100.00;100015.56;5018834;28;20205;-79
2023/09/03 06:23:31;;;;;;;2.60;2.40;;;;;;;19.25;100.00;100015.03;5021294;28;20282;-79
2023/09/03 06:25:58;;;;;;;2.80;2.60;;;;;;;19.33;100.00;100015.31;5019388;28;20205;-79
2023/09/03 06:28:28;;;;;;;3.37;2.80;;;;;;;19.46;100.00;100016.75;5000480;28;20634;-82
2023/09/03 06:30:58;;;;;;;2.80;2.60;;;;;;;19.54;100.00;100016.22;4996103;28;20711;-79
2023/09/03 06:33:29;;;;;;;2.87;2.67;;;;;;;19.64;100.00;100016.22;5027481;28;20212;-79
2023/09/03 06:35:57;;;;;;;3.30;2.50;;;;;;;19.70;100.00;100017.88;5029646;28;20288;-79
2023/09/03 06:38:29;;;;;;;2.70;2.50;;;;;;;19.84;100.00;100017.34;5027576;28;20232;-79
2023/09/03 06:40:57;;;;;;;2.63;2.43;;;;;;;19.95;100.00;100022.53;5028960;28;20222;-78
2023/09/03 06:43:26;;;;;;;3.60;2.80;;;;;;;19.93;100.00;100038.28;5029936;28;20191;-79
2023/09/03 06:45:54;;;;;;;3.23;2.80;;;;;;;19.64;100.00;100029.03;5023763;28;20653;-79
2023/09/03 06:48:22;;;;;;;2.90;2.70;;;;;;;19.40;100.00;100030.56;5027438;28;20573;-79
2023/09/03 06:50:51;;;;;;;2.90;2.60;;;;;;;19.45;100.00;100019.75;5025173;28;20197;-80
2023/09/03 06:53:19;;;;;;;2.90;2.70;;;;;;;19.53;100.00;100027.38;5026945;28;20193;-79
2023/09/03 06:55:46;;;;;;;3.30;2.30;;;;;;;19.40;100.00;100036.81;5011319;28;20224;-79
2023/09/03 06:58:14;;;;;;;3.83;2.30;;;;;;;19.68;100.00;100038.28;5026204;28;20195;-80
2023/09/03 07:00:45;;;;;;;2.60;2.40;;;;;;;19.93;100.00;100027.41;5023510;28;20791;-79
2023/09/03 07:03:17;;;;;;;3.40;2.60;;;;;;;20.04;100.00;100030.97;5021123;28;20225;-78
2023/09/03 07:05:48;;;;;;;4.90;2.63;;;;;;;20.12;100.00;100035.84;5017073;28;20228;-80
2023/09/03 07:08:18;;;;;;;2.80;2.60;;;;;;;20.23;100.00;100041.03;5017768;28;20629;-79
2023/09/03 07:10:48;;;;;;;3.40;2.67;;;;;;;20.43;100.00;100047.56;4960861;28;1768469;-79
2023/09/03 07:13:18;;;;;;;3.63;2.30;;;;;;;20.56;100.00;100050.53;5014595;28;20206;-79
2023/09/03 07:15:46;;;;;;;2.37;2.17;;;;;;;20.64;100.00;100047.25;5012345;28;20196;-79
2023/09/03 07:18:14;;;;;;;2.50;2.30;;;;;;;20.72;100.00;100042.34;5028624;28;20191;-79
2023/09/03 07:20:43;;;;;;;2.40;2.20;;;;;;;20.76;100.00;100052.41;5024964;28;20217;-79
2023/09/03 07:23:10;;;;;;;2.53;2.30;;;;;;;20.81;100.00;100054.31;5023638;28;20549;-78
2023/09/03 07:25:42;;;;;;;2.72;2.30;;;;;;;20.70;100.00;100044.53;5030721;28;20281;-78
2023/09/03 07:28:10;;;;;;;2.40;2.27;;;;;;;20.95;100.00;100042.53;5027760;28;20718;-78
2023/09/03 07:30:38;;;;;;;2.53;2.33;;;;;;;21.09;100.00;100032.66;5023732;28;20221;-79
2023/09/03 07:33:06;;;;;;;2.40;2.20;;;;;;;21.12;100.00;100034.03;5026492;28;20676;-78
2023/09/03 07:35:33;;;;;;;2.63;2.20;;;;;;;20.99;100.00;100040.91;5025921;28;20657;-79
2023/09/03 07:38:00;;;;;;;3.23;2.30;;;;;;;21.06;100.00;100038.69;5024121;28;20251;-80
2023/09/03 07:40:28;;;;;;;2.20;2.10;;;;;;;21.19;100.00;100050.91;5022153;28;20222;-78
2023/09/03 07:42:56;;;;;;;2.50;2.30;;;;;;;21.31;100.00;100056.88;5027346;28;20204;-81
2023/09/03 07:45:23;;;;;;;2.70;2.17;;;;;;;21.24;100.00;100063.72;5022008;28;20199;-78
2023/09/03 07:47:50;;;;;;;2.83;2.10;;;;;;;21.14;100.00;100071.94;5026037;28;20206;-80
2023/09/03 07:50:16;;;;;;;2.25;2.05;;;;;;;21.12;100.00;100083.06;5025095;28;20255;-79
2023/09/03 07:52:43;;;;;;;2.70;2.45;;;;;;;20.91;100.00;100087.75;5023485;28;20194;-79
2023/09/03 07:55:10;;;;;;;1.90;1.80;;;;;;;20.76;100.00;100079.66;5028549;28;21517;-78
2023/09/03 07:57:37;;;;;;;2.50;2.20;;;;;;;20.84;100.00;100081.81;5019177;28;20207;-79
2023/09/03 08:00:04;;;;;;;2.73;2.13;;;;;;;21.00;100.00;100093.44;5009157;28;20252;-79
2023/09/03 08:02:38;;;;;;;2.53;2.33;;;;;;;21.07;100.00;100091.25;5018867;28;20205;-79
2023/09/03 08:05:05;;;;;;;2.53;2.07;;;;;;;20.83;100.00;100098.41;5024192;28;20218;-79
2023/09/03 08:07:32;;;;;;;3.17;2.30;;;;;;;21.01;100.00;100100.53;4999339;28;20203;-79
2023/09/03 08:09:59;;;;;;;2.38;2.17;;;;;;;21.05;100.00;100104.34;5020000;28;20729;-78
2023/09/03 08:12:25;;;;;;;2.40;2.20;;;;;;;21.10;100.00;100104.31;5024766;28;20194;-77
2023/09/03 08:14:52;;;;;;;2.28;2.13;;;;;;;21.44;100.00;100104.50;5005829;28;20191;-79
2023/09/03 08:17:23;;;;;;;3.03;2.03;;;;;;;21.56;100.00;100102.25;5025712;28;20684;-79
2023/09/03 08:19:50;;;;;;;2.25;2.03;;;;;;;21.69;100.00;100101.66;5023137;28;20214;-80
2023/09/03 08:22:17;;;;;;;2.28;2.10;;;;;;;21.92;100.00;100098.25;5007409;28;20249;-78
2023/09/03 08:24:43;;;;;;;2.10;1.90;;;;;;;21.89;100.00;100095.25;5025407;28;20681;-78
2023/09/03 08:27:10;;;;;;;2.30;1.98;;;;;;;21.78;100.00;100105.44;5008972;28;20653;-78
2023/09/03 08:29:37;;;;;;;2.00;1.77;;;;;;;21.78;100.00;100104.63;5025848;28;20233;-78
2023/09/03 08:32:04;;;;;;;1.83;1.67;;;;;;;21.74;100.00;100109.78;5027469;28;20273;-79
2023/09/03 08:34:30;;;;;;;2.00;1.90;;;;;;;21.70;100.00;100110.63;5008736;28;20680;-78
2023/09/03 08:36:57;;;;;;;1.80;1.70;;;;;;;21.71;100.00;100109.53;5026466;28;20209;-78
2023/09/03 08:39:24;;;;;;;2.00;1.90;;;;;;;21.80;100.00;100108.69;5029566;28;20253;-78
2023/09/03 08:41:52;;;;;;;3.25;1.80;;;;;;;22.02;100.00;100102.84;5027375;28;20265;-78
2023/09/03 08:44:28;;;;;;;2.03;1.90;;;;;;;22.21;100.00;100109.25;5005230;28;20195;-78
2023/09/03 08:46:59;;;;;;;2.08;1.90;;;;;;;22.34;100.00;100111.34;5026695;28;20206;-77
2023/09/03 08:49:31;;;;;;;2.10;2.00;;;;;;;22.46;100.00;100110.97;5015218;28;20209;-78
2023/09/03 08:51:58;;;;;;;2.63;1.92;;;;;;;22.59;100.00;100115.75;5013491;28;20214;-78
2023/09/03 08:54:27;;;;;;;2.00;1.90;;;;;;;22.61;100.00;100121.75;5024934;28;20290;-77
2023/09/03 08:56:57;;;;;;;1.88;1.77;;;;;;;22.64;100.00;100114.91;4997720;28;20198;-78
2023/09/03 08:59:27;;;;;;;4.28;1.80;;;;;;;22.64;100.00;100109.44;5016348;28;20214;-78
2023/09/03 09:01:56;;;;;;;2.00;1.90;;;;;;;22.89;100.00;100113.88;5030100;28;20271;-77
2023/09/03 09:04:29;;;;;;;2.00;1.90;;;;;;;23.06;100.00;100117.78;5015140;28;20189;-77
2023/09/03 09:06:57;;;;;;;1.98;1.88;;;;;;;23.18;100.00;100112.75;5022207;28;20313;-77
2023/09/03 09:09:26;;;;;;;2.85;1.80;;;;;;;23.15;100.00;100113.31;5005999;28;20245;-76
2023/09/03 09:12:04;;;;;;;1.92;1.70;;;;;;;22.97;100.00;100114.06;5021334;28;20197;-76
2023/09/03 09:14:59;;;;;;;2.63;1.77;;;;;;;22.80;100.00;100113.69;5001297;28;20199;-77
2023/09/03 09:17:40;;;;;;;2.45;1.88;;;;;;;23.04;100.00;100109.06;5024737;28;20231;-77
2023/09/03 09:20:12;;;;;;;1.83;1.70;;;;;;;22.89;100.00;100108.41;5006078;28;20206;-78
2023/09/03 09:22:43;;;;;;;1.80;1.70;;;;;;;23.30;100.00;100111.50;5008954;28;20808;-79
2023/09/03 09:25:19;;;;;;;1.90;1.55;;;;;;;23.04;100.00;100117.28;4996787;28;20225;-79
2023/09/03 09:27:46;;;;;;;2.22;1.70;;;;;;;23.02;100.00;100111.28;5014207;28;20247;-78
2023/09/03 09:30:16;;;;;;;1.55;1.45;;;;;;;23.11;100.00;100108.72;5026079;28;20665;-78
2023/09/03 09:32:45;;;;;;;1.85;1.75;;;;;;;23.21;100.00;100105.88;5031138;28;20188;-78
2023/09/03 09:35:25;;;;;;;2.03;1.73;;;;;;;23.16;100.00;100117.66;5027266;28;20194;-78
2023/09/03 09:37:54;;;;;;;2.00;1.90;;;;;;;23.18;100.00;100111.91;5032966;28;20678;-77
2023/09/03 09:40:28;;;;;;;2.10;2.00;;;;;;;23.05;100.00;100118.09;5032772;28;20230;-77
2023/09/03 09:43:00;;;;;;;1.95;1.85;;;;;;;22.75;100.00;100120.03;5032825;28;20550;-78
2023/09/03 09:45:28;;;;;;;2.38;1.90;;;;;;;23.01;100.00;100133.41;5009734;28;20194;-78
2023/09/03 09:48:06;;;;;;;2.75;2.17;;;;;;;23.13;100.00;100133.84;5025500;28;20299;-77
2023/09/03 09:50:39;;;;;;;2.20;2.00;;;;;;;22.97;100.00;100127.72;5024941;28;20196;-78
2023/09/03 09:53:21;;;;;;;2.05;1.95;;;;;;;22.91;100.00;100131.59;5002407;28;20196;-78
2023/09/03 09:56:02;;;;;;;1.90;1.80;;;;;;;22.76;100.00;100138.03;5009985;28;20749;-78
2023/09/03 09:58:40;;;;;;;2.45;1.92;;;;;;;22.85;100.00;100145.59;5002817;28;20196;-78
2023/09/03 10:01:09;;;;;;;2.22;2.03;;;;;;;22.93;100.00;100145.78;5015342;28;20245;-78
2023/09/03 10:03:46;;;;;;;2.20;2.10;;;;;;;22.94;100.00;100143.88;5029935;28;20225;-78
2023/09/03 10:06:20;;;;;;;2.13;2.03;;;;;;;23.33;100.00;100133.59;5012180;28;20230;-78
2023/09/03 10:08:49;;;;;;;2.38;2.17;;;;;;;23.46;100.00;100132.94;5032270;28;20199;-77
2023/09/03 10:11:19;;;;;;;1.90;1.80;;;;;;;23.69;100.00;100132.09;4996617;28;20322;-78
2023/09/03 10:13:48;;;;;;;2.20;2.00;;;;;;;23.92;100.00;100130.41;5025811;28;20569;-77
2023/09/03 10:16:19;;;;;;;2.30;2.10;;;;;;;24.18;100.00;100117.19;5033076;28;20198;-77
2023/09/03 10:18:49;;;;;;;2.40;2.20;;;;;;;24.50;100.00;100122.66;5008656;28;20606;-77
2023/09/03 10:21:22;;;;;;;2.28;2.17;;;;;;;24.56;100.00;100109.72;5031098;28;20264;-78
2023/09/03 10:24:08;;;;;;;2.45;2.22;;;;;;;24.66;100.00;100112.28;5013514;28;20201;-78
2023/09/03 10:26:43;;;;;;;2.40;2.20;;;;;;;24.79;100.00;100105.19;5013235;28;20193;-78
2023/09/03 10:29:14;;;;;;;2.53;2.33;;;;;;;25.05;100.00;100103.66;4997670;28;20563;-78
2023/09/03 10:31:42;;;;;;;2.63;2.42;;;;;;;25.25;100.00;100103.22;5013192;28;20233;-78
2023/09/03 10:34:10;;;;;;;2.25;2.05;;;;;;;25.44;100.00;100103.13;5004735;28;20194;-78
2023/09/03 10:36:38;;;;;;;2.28;2.17;;;;;;;25.58;100.00;100101.19;5005416;28;20290;-78
2023/09/03 10:39:23;;;;;;;2.63;2.38;;;;;;;25.47;100.00;100096.22;5007711;28;20651;-78
2023/09/03 10:42:16;;;;;;;2.60;2.15;;;;;;;25.30;100.00;100097.66;5006016;28;20232;-79
2023/09/03 10:44:54;;;;;;;2.72;2.53;;;;;;;26.03;100.00;100093.88;5027046;28;20310;-78
2023/09/03 10:47:22;;;;;;;2.85;2.10;;;;;;;26.09;100.00;100092.63;5016725;28;20272;-78
2023/09/03 10:49:52;;;;;;;2.83;2.20;;;;;;;26.05;100.00;100088.88;5024776;28;20194;-78
2023/09/03 10:52:32;;;;;;;2.30;2.05;;;;;;;25.65;100.00;100087.88;5031238;28;20205;-78
2023/09/03 10:55:15;;;;;;;2.30;2.10;;;;;;;26.21;100.00;100094.84;5024850;28;20277;-79
2023/09/03 10:57:48;;;;;;;2.55;2.35;;;;;;;26.31;100.00;100086.38;5015816;28;20741;-78
2023/09/03 11:00:20;;;;;;;2.40;2.20;;;;;;;26.59;100.00;100095.28;5012815;28;20207;-78
2023/09/03 11:03:13;;;;;;;2.20;2.00;;;;;;;26.54;100.00;100098.16;5008395;28;20279;-79
2023/09/03 11:05:42;;;;;;;2.22;2.03;;;;;;;26.24;100.00;100106.03;5014816;28;20226;-78
2023/09/03 11:08:31;;;;;;;2.40;2.30;;;;;;;26.67;100.00;100103.56;5007923;28;20214;-79
2023/09/03 11:10:59;;;;;;;2.28;2.10;;;;;;;26.70;100.00;100111.16;5024369;28;20929;-79
2023/09/03 11:13:27;;;;;;;2.17;2.00;;;;;;;26.69;100.00;100114.22;5022463;28;20202;-79
2023/09/03 11:16:05;;;;;;;2.33;2.13;;;;;;;26.69;100.00;100109.53;5017294;28;20198;-78
2023/09/03 11:18:34;;;;;;;2.20;2.10;;;;;;;26.71;100.00;100109.25;5022871;28;20800;-79
2023/09/03 11:21:04;;;;;;;1.83;1.73;;;;;;;26.87;100.00;100099.50;5027155;28;20313;-80
2023/09/03 11:23:33;;;;;;;1.83;1.73;;;;;;;27.02;100.00;100098.25;5004845;28;20684;-81
2023/09/03 11:26:12;;;;;;;3.15;1.80;;;;;;;27.36;100.00;100094.81;5015506;28;20196;-78
2023/09/03 11:28:45;;;;;;;1.98;1.85;;;;;;;26.43;100.00;100092.09;5006456;28;20675;-79
2023/09/03 11:31:13;;;;;;;1.50;1.40;;;;;;;26.66;100.00;100106.63;5019710;28;20210;-79
2023/09/03 11:33:41;;;;;;;1.88;1.77;;;;;;;26.76;100.00;100100.03;5017590;28;20187;-82
2023/09/03 11:36:09;;;;;;;1.58;1.48;;;;;;;26.71;100.00;100101.81;5022582;28;20557;-78